KMBS/MBS METAR and TAF weather

Enter ICAO airport designator
Station Type Date Time Source
KMBS METAR 2022/01/18 05:53 UTC NOAA

KMBS 180553Z AUTO 26010KT 10SM OVC043 M03/M07 A2985 RMK AO2 SLP117 T10331072 11017 21033 51012


Station Type Date Time Source
KMBS Decoded METAR 2022/01/18 05:53 UTC NOAA

MBS INTERNATIONAL AIRPORT, MI, United States (KMBS) 43-32N 084-05W 202M
Jan 18, 2022 - 12:53 AM EST / 2022.01.18 0553 UTC
Wind: from the W (260 degrees) at 12 MPH (10 KT):0
Visibility: 10 mile(s):0
Sky conditions: overcast
Temperature: 26.1 F (-3.3 C)
Windchill: 15 F (-9 C):1
Dew Point: 19.0 F (-7.2 C)
Relative Humidity: 74%
Pressure (altimeter): 29.85 in. Hg (1010 hPa)
Pressure tendency: 0.04 inches (1.2 hPa) higher than three hours ago
ob: KMBS 180553Z AUTO 26010KT 10SM OVC043 M03/M07 A2985 RMK AO2 SLP117 T10331072 11017 21033 51012
cycle: 6

Station Type Date Time Source
KMBS TAF 2022/01/18 06:22 UTC NOAA

TAF KMBS 180520Z 1806/1906 26008KT P6SM BKN028 OVC035
FM181000 25005KT P6SM OVC020
FM181400 22006KT P6SM OVC016
FM182000 17010KT 6SM -SN SCT025 OVC035
FM190000 18014G22KT P6SM BKN035

Example: see airport list